Time;durP1;ratioP1;P1;durP2;ratioP2;P2;SDS_P1;SDS_P2;PMS_P1;PMS_P2;Temp;Humidity;BMP_temperature;BMP_pressure;BME280_temperature;BME280_humidity;BME280_pressure;Samples;Min_cycle;Max_cycle;Signal;HPM_P1;HPM_P2
2022/05/10 00:00:40;;;;;;;;;;;;;;;17.11;60.13;100407.22;1086849;54;19973;-78
2022/05/10 00:01:41;;;;;;;;;;;;;;;17.07;59.99;100403.22;1086697;54;20734;-78
2022/05/10 00:02:49;;;;;;;;;;;;;;;17.04;60.34;100398.16;1086926;54;19961;-78
2022/05/10 00:03:51;;;;;;;;;;;;;;;17.03;60.13;100405.44;1086863;54;19939;-79
2022/05/10 00:04:56;;;;;;;;;;;;;;;17.04;60.29;100400.88;1086825;54;19939;-78
2022/05/10 00:05:59;;;;;;;;;;;;;;;17.02;60.64;100397.50;1087556;47;19939;-79
2022/05/10 00:07:03;;;;;;;;;;;;;;;17.02;60.23;100400.19;1086861;54;19969;-79
2022/05/10 00:08:08;;;;;;;;;;;;;;;17.00;60.38;100401.22;1087144;39;20367;-78
2022/05/10 00:09:13;;;;;;;;;;;;;;;17.00;60.15;100400.38;1086606;54;19939;-78
2022/05/10 00:10:21;;;;;;;;;;;;;;;16.96;60.84;100391.81;1087426;39;20423;-78
2022/05/10 00:11:24;;;;;;;;;;;;;;;16.96;60.47;100391.81;1086586;54;19970;-79
2022/05/10 00:12:31;;;;;;;;;;;;;;;16.97;60.24;100401.59;1087133;54;19935;-78
2022/05/10 00:13:34;;;;;;;;;;;;;;;16.96;60.23;100391.81;1088265;54;19923;-79
2022/05/10 00:14:40;;;;;;;;;;;;;;;16.97;60.13;100395.34;1088476;54;19970;-79
2022/05/10 00:15:43;;;;;;;;;;;;;;;16.96;60.41;100399.03;1088132;54;19947;-80
2022/05/10 00:16:51;;;;;;;;;;;;;;;16.93;60.41;100394.84;1091044;47;19950;-79
2022/05/10 00:17:53;;;;;;;;;;;;;;;16.87;61.01;100395.53;1087067;39;20375;-79
2022/05/10 00:18:59;;;;;;;;;;;;;;;16.81;61.63;100393.56;1086816;54;19939;-78
2022/05/10 00:20:00;;;;;;;;;;;;;;;16.75;61.79;100392.41;1086586;54;20464;-78
2022/05/10 00:21:05;;;;;;;;;;;;;;;16.69;62.17;100393.09;1086813;54;19939;-78
2022/05/10 00:22:08;;;;;;;;;;;;;;;16.63;62.19;100396.50;1086620;54;19957;-78
2022/05/10 00:23:16;;;;;;;;;;;;;;;16.55;62.60;100396.56;1086713;54;19959;-80
2022/05/10 00:24:18;;;;;;;;;;;;;;;16.41;62.81;100400.81;1086966;54;19969;-79
2022/05/10 00:25:28;;;;;;;;;;;;;;;16.33;63.30;100409.78;1086921;54;19934;-79
2022/05/10 00:26:29;;;;;;;;;;;;;;;16.29;63.41;100397.66;1086956;54;19942;-78
2022/05/10 00:27:33;;;;;;;;;;;;;;;16.30;63.38;100394.78;1086659;54;20002;-79
2022/05/10 00:28:36;;;;;;;;;;;;;;;16.23;63.61;100399.19;1087213;54;19958;-79
2022/05/10 00:29:41;;;;;;;;;;;;;;;16.21;63.38;100407.44;1086743;54;19939;-78
2022/05/10 00:30:44;;;;;;;;;;;;;;;16.19;63.73;100401.41;1087108;54;20447;-80
2022/05/10 00:31:49;;;;;;;;;;;;;;;16.12;63.96;100404.97;1087012;54;19968;-79
2022/05/10 00:32:52;;;;;;;;;;;;;;;16.13;63.52;100395.84;1086454;54;19950;-79
2022/05/10 00:33:58;;;;;;;;;;;;;;;16.15;63.62;100396.53;1086624;54;19950;-79
2022/05/10 00:34:59;;;;;;;;;;;;;;;16.12;63.91;100394.16;1087121;54;19947;-79
2022/05/10 00:36:06;;;;;;;;;;;;;;;16.04;63.98;100398.56;1087077;54;19958;-79
2022/05/10 00:37:10;;;;;;;;;;;;;;;15.94;64.55;100397.91;1087440;54;19958;-80
2022/05/10 00:38:14;;;;;;;;;;;;;;;15.87;64.93;100400.44;1087586;54;19970;-79
2022/05/10 00:39:15;;;;;;;;;;;;;;;15.75;65.22;100394.56;1089031;39;20473;-79
2022/05/10 00:40:21;;;;;;;;;;;;;;;15.73;65.28;100399.25;1087614;54;20633;-79
2022/05/10 00:41:28;;;;;;;;;;;;;;;15.72;65.17;100402.97;1087918;54;19946;-79
2022/05/10 00:42:35;;;;;;;;;;;;;;;15.70;65.59;100394.19;1088011;54;19923;-79
2022/05/10 00:43:43;;;;;;;;;;;;;;;15.68;65.45;100396.22;1088167;39;20384;-79
2022/05/10 00:44:49;;;;;;;;;;;;;;;15.67;65.86;100399.94;1087617;54;20475;-79
2022/05/10 00:45:57;;;;;;;;;;;;;;;15.76;65.40;100392.69;1087850;54;19988;-78
2022/05/10 00:47:03;;;;;;;;;;;;;;;15.66;65.67;100392.88;1087932;54;19934;-78
2022/05/10 00:48:11;;;;;;;;;;;;;;;15.59;66.12;100391.84;1087783;54;19935;-79
2022/05/10 00:49:21;;;;;;;;;;;;;;;15.57;66.13;100393.91;1087525;54;19958;-79
2022/05/10 00:50:26;;;;;;;;;;;;;;;15.55;65.81;100391.34;1087639;54;19947;-79
2022/05/10 00:51:36;;;;;;;;;;;;;;;15.55;66.15;100394.03;1087780;54;19934;-79
2022/05/10 00:52:45;;;;;;;;;;;;;;;15.50;66.23;100398.25;1087719;54;20705;-78
2022/05/10 00:53:59;;;;;;;;;;;;;;;15.52;66.03;100390.84;1087733;54;20533;-78
2022/05/10 00:55:08;;;;;;;;;;;;;;;15.59;65.69;100397.22;1087877;54;19957;-78
2022/05/10 00:56:14;;;;;;;;;;;;;;;15.62;65.36;100390.69;1087292;54;19949;-79
2022/05/10 00:57:29;;;;;;;;;;;;;;;15.57;65.63;100388.50;1087892;54;19943;-79
2022/05/10 00:58:37;;;;;;;;;;;;;;;15.52;65.52;100390.84;1087818;54;19973;-79
2022/05/10 00:59:49;;;;;;;;;;;;;;;15.52;65.41;100388.16;1087866;54;19959;-79
2022/05/10 01:00:53;;;;;;;;;;;;;;;15.50;65.79;100392.84;1087859;54;20015;-77
2022/05/10 01:02:03;;;;;;;;;;;;;;;15.43;66.34;100398.94;1087951;54;19930;-79
2022/05/10 01:03:07;;;;;;;;;;;;;;;15.43;66.35;100392.72;1087876;54;19965;-77
2022/05/10 01:04:17;;;;;;;;;;;;;;;15.38;66.50;100390.53;1086141;54;19947;-78
2022/05/10 01:05:27;;;;;;;;;;;;;;;15.34;66.48;100394.56;1086044;54;19957;-77
2022/05/10 01:06:35;;;;;;;;;;;;;;;15.31;66.82;100389.50;1085687;54;19951;-78
2022/05/10 01:07:42;;;;;;;;;;;;;;;15.23;66.97;100395.72;1088046;54;19943;-79
2022/05/10 01:08:51;;;;;;;;;;;;;;;15.22;67.30;100385.97;1088245;54;20003;-80
2022/05/10 01:09:57;;;;;;;;;;;;;;;15.22;67.14;100385.09;1088204;54;19998;-79
2022/05/10 01:11:03;;;;;;;;;;;;;;;15.19;67.53;100380.06;1088300;54;19957;-78
2022/05/10 01:12:09;;;;;;;;;;;;;;;15.15;67.80;100384.97;1088481;54;19927;-79
2022/05/10 01:13:20;;;;;;;;;;;;;;;15.05;68.33;100390.47;1088578;54;19977;-79
2022/05/10 01:14:24;;;;;;;;;;;;;;;15.04;68.38;100380.72;1088596;54;19935;-79
2022/05/10 01:15:30;;;;;;;;;;;;;;;15.00;68.50;100382.06;1088681;54;19922;-79
2022/05/10 01:16:33;;;;;;;;;;;;;;;15.03;68.13;100381.72;1088593;54;20034;-79
2022/05/10 01:17:39;;;;;;;;;;;;;;;15.03;68.08;100376.34;1088492;54;19954;-77
2022/05/10 01:18:44;;;;;;;;;;;;;;;15.05;68.31;100382.41;1088319;54;19938;-78
2022/05/10 01:19:47;;;;;;;;;;;;;;;15.04;68.33;100372.63;1088310;54;20484;-81
2022/05/10 01:20:54;;;;;;;;;;;;;;;15.04;68.33;100374.50;1088372;54;19945;-79
2022/05/10 01:22:06;;;;;;;;;;;;;;;15.07;68.21;100368.75;1088268;54;19946;-78
2022/05/10 01:23:28;;;;;;;;;;;;;;;15.05;68.13;100374.31;1087989;54;20527;-79
2022/05/10 01:24:38;;;;;;;;;;;;;;;14.99;68.72;100361.53;1088385;54;19935;-79
2022/05/10 01:25:52;;;;;;;;;;;;;;;14.96;68.70;100370.78;1088596;54;19941;-80
2022/05/10 01:27:02;;;;;;;;;;;;;;;14.90;68.71;100365.22;1088601;54;19950;-80
2022/05/10 01:28:21;;;;;;;;;;;;;;;14.81;69.08;100370.59;1088562;54;19989;-80
2022/05/10 01:29:27;;;;;;;;;;;;;;;14.80;69.16;100368.03;1089036;46;19943;-78
2022/05/10 01:30:33;;;;;;;;;;;;;;;14.73;68.86;100365.19;1088896;54;19926;-80
2022/05/10 01:31:38;;;;;;;;;;;;;;;14.68;69.48;100367.53;1095040;46;19923;-79
2022/05/10 01:34:09;;;;;;;;;;;;;;;14.63;69.52;100367.16;1088765;54;19943;-80
2022/05/10 01:35:15;;;;;;;;;;;;;;;14.58;69.80;100369.47;1088628;54;19951;-77
2022/05/10 01:36:28;;;;;;;;;;;;;;;14.58;69.84;100366.78;1088555;54;19923;-80
2022/05/10 01:37:34;;;;;;;;;;;;;;;14.55;69.90;100364.44;1090850;46;19946;-80
2022/05/10 01:38:43;;;;;;;;;;;;;;;14.55;69.55;100364.44;1088289;54;19959;-79
2022/05/10 01:39:49;;;;;;;;;;;;;;;14.55;69.63;100356.38;1088098;54;20053;-79
2022/05/10 01:40:57;;;;;;;;;;;;;;;14.54;69.50;100366.28;1087465;54;19998;-78
2022/05/10 01:42:00;;;;;;;;;;;;;;;14.55;69.37;100356.38;1087602;54;20492;-79
2022/05/10 01:43:08;;;;;;;;;;;;;;;14.55;69.45;100356.38;1087582;54;19946;-80
2022/05/10 01:44:17;;;;;;;;;;;;;;;14.49;69.56;100353.31;1087641;54;19954;-79
2022/05/10 01:45:27;;;;;;;;;;;;;;;14.47;69.64;100366.06;1087783;46;19965;-78
2022/05/10 01:46:30;;;;;;;;;;;;;;;14.45;69.72;100359.19;1087601;54;19958;-78
2022/05/10 01:47:39;;;;;;;;;;;;;;;14.44;69.78;100361.03;1087409;54;19939;-80
2022/05/10 01:48:45;;;;;;;;;;;;;;;14.40;70.04;100361.53;1087615;54;19943;-78
2022/05/10 01:49:53;;;;;;;;;;;;;;;14.42;69.92;100364.88;1087620;54;20023;-77
2022/05/10 01:50:59;;;;;;;;;;;;;;;14.42;69.91;100365.72;1087635;54;19943;-79
2022/05/10 01:52:02;;;;;;;;;;;;;;;14.40;70.00;100365.03;1087701;54;19950;-82
2022/05/10 01:53:09;;;;;;;;;;;;;;;14.42;69.78;100368.41;1087464;54;19942;-80
2022/05/10 01:54:22;;;;;;;;;;;;;;;14.51;69.22;100363.91;1087459;54;19942;-80
2022/05/10 01:55:31;;;;;;;;;;;;;;;14.47;69.45;100363.38;1087429;54;19947;-78
2022/05/10 01:56:34;;;;;;;;;;;;;;;14.47;69.27;100360.69;1087304;54;19949;-80
2022/05/10 01:57:41;;;;;;;;;;;;;;;14.48;69.56;100361.56;1087808;54;19970;-79
2022/05/10 01:58:45;;;;;;;;;;;;;;;14.51;69.28;100358.50;1087963;54;20460;-79
2022/05/10 01:59:55;;;;;;;;;;;;;;;14.57;68.99;100365.09;1087779;54;19958;-81
2022/05/10 02:01:02;;;;;;;;;;;;;;;14.54;69.03;100358.19;1088012;54;20492;-79
2022/05/10 02:02:06;;;;;;;;;;;;;;;14.45;69.80;100362.69;1087823;54;19950;-80
2022/05/10 02:03:17;;;;;;;;;;;;;;;14.33;70.15;100364.00;1087877;54;20460;-80
2022/05/10 02:04:22;;;;;;;;;;;;;;;14.31;70.25;100361.47;1087926;54;20425;-80
2022/05/10 02:05:34;;;;;;;;;;;;;;;14.31;70.61;100366.84;1087735;54;19947;-80
2022/05/10 02:06:43;;;;;;;;;;;;;;;14.30;70.58;100359.81;1087742;54;19942;-78
2022/05/10 02:07:47;;;;;;;;;;;;;;;14.30;70.56;100359.81;1087917;54;19938;-81
2022/05/10 02:08:58;;;;;;;;;;;;;;;14.34;70.31;100363.00;1087876;54;19957;-79
2022/05/10 02:10:02;;;;;;;;;;;;;;;14.43;69.98;100359.34;1087620;54;19933;-80
2022/05/10 02:11:14;;;;;;;;;;;;;;;14.41;70.16;100366.72;1087866;54;20015;-82
2022/05/10 02:12:17;;;;;;;;;;;;;;;14.37;70.08;100361.84;1087643;54;20647;-80
2022/05/10 02:13:25;;;;;;;;;;;;;;;14.37;70.06;100362.66;1088503;39;20593;-79
2022/05/10 02:14:33;;;;;;;;;;;;;;;14.41;70.22;100357.81;1087829;54;20445;-80
2022/05/10 02:15:41;;;;;;;;;;;;;;;14.38;69.97;100364.34;1087953;54;19951;-81
2022/05/10 02:16:49;;;;;;;;;;;;;;;14.40;69.71;100348.91;1087870;54;19950;-80
2022/05/10 02:17:56;;;;;;;;;;;;;;;14.35;70.02;100362.00;1091970;39;20420;-80
2022/05/10 02:19:03;;;;;;;;;;;;;;;14.38;69.99;100363.53;1087816;54;19950;-79
2022/05/10 02:20:08;;;;;;;;;;;;;;;14.40;69.56;100362.34;1088003;54;19950;-80
2022/05/10 02:21:17;;;;;;;;;;;;;;;14.40;69.49;100359.66;1087862;54;19947;-80
2022/05/10 02:22:21;;;;;;;;;;;;;;;14.38;69.90;100358.97;1088292;54;19942;-81
2022/05/10 02:23:31;;;;;;;;;;;;;;;14.37;69.85;100354.59;1088415;54;19946;-80
2022/05/10 02:24:37;;;;;;;;;;;;;;;14.34;69.98;100360.31;1088521;54;19953;-81
2022/05/10 02:25:42;;;;;;;;;;;;;;;14.33;70.02;100353.25;1088533;54;19923;-80
2022/05/10 02:26:48;;;;;;;;;;;;;;;14.31;69.75;100350.72;1088386;54;20425;-81
2022/05/10 02:27:55;;;;;;;;;;;;;;;14.34;70.12;100352.25;1088428;54;19942;-80
2022/05/10 02:29:06;;;;;;;;;;;;;;;14.31;70.00;100350.72;1088746;39;20428;-79
2022/05/10 02:30:09;;;;;;;;;;;;;;;14.32;69.60;100354.25;1088131;54;19978;-81
2022/05/10 02:31:24;;;;;;;;;;;;;;;14.30;69.89;100353.56;1088557;54;19999;-81
2022/05/10 02:33:47;;;;;;;;;;;;;;;14.26;69.72;100347.69;1088498;54;19950;-80
2022/05/10 02:34:55;;;;;;;;;;;;;;;14.27;69.91;100348.50;1088206;54;19942;-81
2022/05/10 02:35:58;;;;;;;;;;;;;;;14.24;70.02;100343.47;1088423;39;20333;-80
2022/05/10 02:37:06;;;;;;;;;;;;;;;14.23;70.21;100345.28;1087855;54;19953;-79
2022/05/10 02:38:09;;;;;;;;;;;;;;;14.25;69.76;100345.16;1087908;54;20002;-81
2022/05/10 02:39:15;;;;;;;;;;;;;;;14.29;69.97;100341.13;1088506;39;19959;-81
2022/05/10 02:40:17;;;;;;;;;;;;;;;14.31;69.72;100339.94;1089675;39;20348;-81
2022/05/10 02:41:24;;;;;;;;;;;;;;;14.30;69.89;100335.59;1088235;54;20769;-81
2022/05/10 02:42:27;;;;;;;;;;;;;;;14.33;69.35;100339.81;1088194;54;19962;-79
2022/05/10 02:43:32;;;;;;;;;;;;;;;14.29;69.60;100333.91;1088194;54;19946;-82
2022/05/10 02:44:35;;;;;;;;;;;;;;;14.26;70.04;100339.59;1088153;54;19950;-81
2022/05/10 02:45:42;;;;;;;;;;;;;;;14.23;70.15;100336.41;1088071;54;19995;-81
2022/05/10 02:46:51;;;;;;;;;;;;;;;14.28;69.73;100334.06;1087882;54;19950;-80
2022/05/10 02:47:54;;;;;;;;;;;;;;;14.27;69.71;100337.75;1088071;54;19995;-81
2022/05/10 02:49:05;;;;;;;;;;;;;;;14.26;69.82;100338.78;1088299;54;19957;-80
2022/05/10 02:50:08;;;;;;;;;;;;;;;14.29;69.66;100333.06;1088278;54;19923;-79
2022/05/10 02:51:12;;;;;;;;;;;;;;;14.35;69.33;100338.63;1088125;54;19950;-79
2022/05/10 02:52:16;;;;;;;;;;;;;;;14.38;69.48;100337.47;1088150;54;19942;-79
2022/05/10 02:53:21;;;;;;;;;;;;;;;14.43;68.98;100336.97;1088150;54;19943;-80
2022/05/10 02:54:24;;;;;;;;;;;;;;;14.45;68.99;100345.72;1090665;39;20344;-80
2022/05/10 02:55:33;;;;;;;;;;;;;;;14.47;68.97;100343.72;1088272;54;19965;-80
2022/05/10 02:56:37;;;;;;;;;;;;;;;14.53;68.84;100342.22;1088270;54;20000;-82
2022/05/10 02:57:41;;;;;;;;;;;;;;;14.54;69.20;100339.38;1088569;54;19939;-80
2022/05/10 02:58:45;;;;;;;;;;;;;;;14.59;68.73;100336.19;1092605;39;20537;-79
2022/05/10 02:59:51;;;;;;;;;;;;;;;14.62;68.54;100335.88;1088536;54;19934;-81
2022/05/10 03:00:57;;;;;;;;;;;;;;;14.60;68.87;100337.88;1088556;54;20468;-80
2022/05/10 03:02:08;;;;;;;;;;;;;;;14.58;69.08;100337.19;1088492;54;19965;-80
2022/05/10 03:03:13;;;;;;;;;;;;;;;14.59;68.90;100330.81;1088291;54;19941;-81
2022/05/10 03:04:18;;;;;;;;;;;;;;;14.59;68.95;100333.50;1088524;54;19935;-80
2022/05/10 03:05:22;;;;;;;;;;;;;;;14.57;69.12;100330.13;1088487;54;19942;-81
2022/05/10 03:06:28;;;;;;;;;;;;;;;14.56;69.17;100331.13;1088584;54;19938;-80
2022/05/10 03:07:29;;;;;;;;;;;;;;;14.54;69.94;100333.16;1088536;54;19927;-80
2022/05/10 03:08:35;;;;;;;;;;;;;;;14.56;69.31;100320.38;1088490;54;19942;-79
2022/05/10 03:09:38;;;;;;;;;;;;;;;14.57;68.91;100327.44;1088569;54;19923;-80
2022/05/10 03:10:42;;;;;;;;;;;;;;;14.56;68.82;100329.28;1088231;54;19995;-79
2022/05/10 03:11:45;;;;;;;;;;;;;;;14.55;68.92;100332.97;1088422;54;19934;-79
2022/05/10 03:12:50;;;;;;;;;;;;;;;14.54;69.06;100328.59;1088292;54;19957;-79
2022/05/10 03:13:52;;;;;;;;;;;;;;;14.55;68.93;100335.69;1088227;54;20534;-80
2022/05/10 03:14:57;;;;;;;;;;;;;;;14.54;69.25;100333.16;1088535;54;19942;-81
2022/05/10 03:15:58;;;;;;;;;;;;;;;14.49;69.55;100326.41;1088567;54;19968;-80
2022/05/10 03:17:08;;;;;;;;;;;;;;;14.43;70.00;100332.44;1088621;54;19982;-80
2022/05/10 03:18:10;;;;;;;;;;;;;;;14.41;70.05;100329.06;1088619;54;19923;-81
2022/05/10 03:19:16;;;;;;;;;;;;;;;14.40;69.79;100331.94;1090338;46;19942;-81
2022/05/10 03:20:17;;;;;;;;;;;;;;;14.37;69.85;100332.25;1088341;54;19927;-78
2022/05/10 03:21:22;;;;;;;;;;;;;;;14.38;69.50;100332.09;1088691;46;20023;-77
2022/05/10 03:22:23;;;;;;;;;;;;;;;14.41;69.65;100334.47;1090611;46;19966;-79
2022/05/10 03:23:27;;;;;;;;;;;;;;;14.41;69.58;100336.28;1088274;54;19942;-78
2022/05/10 03:24:29;;;;;;;;;;;;;;;14.44;69.55;100336.84;1088417;54;19927;-80
2022/05/10 03:25:33;;;;;;;;;;;;;;;14.47;69.20;100333.78;1088437;54;19938;-78
2022/05/10 03:26:35;;;;;;;;;;;;;;;14.44;69.54;100328.75;1088327;54;19943;-77
2022/05/10 03:27:39;;;;;;;;;;;;;;;14.43;69.77;100332.44;1088226;54;19938;-78
2022/05/10 03:28:44;;;;;;;;;;;;;;;14.38;69.33;100329.41;1088284;54;20026;-78
2022/05/10 03:29:45;;;;;;;;;;;;;;;14.39;69.44;100331.06;1088310;47;19954;-79
2022/05/10 03:30:49;;;;;;;;;;;;;;;14.38;69.22;100333.94;1088335;54;19947;-82
2022/05/10 03:31:51;;;;;;;;;;;;;;;14.37;69.37;100333.09;1088147;54;19938;-79
2022/05/10 03:32:58;;;;;;;;;;;;;;;14.36;69.26;100339.47;1089485;46;19938;-78
2022/05/10 03:35:18;;;;;;;;;;;;;;;14.19;70.23;100335.88;1087925;54;19942;-79
2022/05/10 03:36:22;;;;;;;;;;;;;;;14.16;70.09;100347.81;1087938;54;19950;-78
2022/05/10 03:37:25;;;;;;;;;;;;;;;14.15;70.28;100340.75;1088294;54;19962;-79
2022/05/10 03:38:29;;;;;;;;;;;;;;;14.16;69.94;100341.56;1088256;54;20562;-79
2022/05/10 03:39:31;;;;;;;;;;;;;;;14.13;70.10;100337.38;1088300;54;19934;-78
2022/05/10 03:40:35;;;;;;;;;;;;;;;14.11;70.19;100341.22;1088293;54;19934;-78
2022/05/10 03:41:36;;;;;;;;;;;;;;;14.10;70.01;100337.69;1088289;54;19927;-77
2022/05/10 03:42:44;;;;;;;;;;;;;;;14.12;69.99;100335.69;1088197;54;19950;-79
2022/05/10 03:43:45;;;;;;;;;;;;;;;14.11;70.34;100350.13;1089403;46;19954;-78
2022/05/10 03:44:52;;;;;;;;;;;;;;;14.11;70.12;100338.53;1089043;46;19949;-78
2022/05/10 03:45:57;;;;;;;;;;;;;;;14.07;70.25;100345.22;1090068;46;19969;-79
2022/05/10 03:46:58;;;;;;;;;;;;;;;14.08;70.04;100345.06;1088266;54;19938;-78
2022/05/10 03:48:05;;;;;;;;;;;;;;;14.09;70.08;100348.59;1088242;54;19942;-78
2022/05/10 03:49:06;;;;;;;;;;;;;;;14.00;70.89;100350.41;1088107;54;19943;-78
2022/05/10 03:50:11;;;;;;;;;;;;;;;13.98;70.50;100347.06;1088285;54;19939;-77
2022/05/10 03:51:12;;;;;;;;;;;;;;;13.99;70.40;100348.72;1088228;54;19962;-77
2022/05/10 03:52:16;;;;;;;;;;;;;;;13.99;70.31;100346.88;1087920;54;19943;-77
2022/05/10 03:53:20;;;;;;;;;;;;;;;14.03;70.36;100347.41;1088044;54;19949;-78
2022/05/10 03:54:22;;;;;;;;;;;;;;;14.04;70.25;100343.72;1088339;54;19949;-79
2022/05/10 03:55:27;;;;;;;;;;;;;;;14.05;69.96;100342.72;1088303;54;19939;-78
2022/05/10 03:56:29;;;;;;;;;;;;;;;14.06;70.31;100343.53;1088221;54;19949;-78
2022/05/10 03:57:33;;;;;;;;;;;;;;;14.04;70.28;100346.41;1089015;46;19943;-78
2022/05/10 03:58:35;;;;;;;;;;;;;;;14.05;70.03;100345.41;1088319;54;19949;-78
2022/05/10 03:59:41;;;;;;;;;;;;;;;14.08;69.85;100345.06;1088362;54;19930;-78
2022/05/10 04:00:42;;;;;;;;;;;;;;;14.09;70.05;100341.38;1088337;54;19926;-77
2022/05/10 04:01:46;;;;;;;;;;;;;;;14.13;69.66;100348.13;1087893;54;19942;-78
2022/05/10 04:02:47;;;;;;;;;;;;;;;14.15;69.37;100346.13;1087819;54;19965;-77
2022/05/10 04:03:54;;;;;;;;;;;;;;;14.16;69.81;100338.88;1087847;54;19973;-77
2022/05/10 04:04:55;;;;;;;;;;;;;;;14.16;69.55;100346.94;1087926;54;19950;-78
2022/05/10 04:05:59;;;;;;;;;;;;;;;14.17;69.61;100343.25;1087815;54;19986;-78
2022/05/10 04:07:00;;;;;;;;;;;;;;;14.16;69.62;100345.13;1087868;54;19991;-78
2022/05/10 04:08:04;;;;;;;;;;;;;;;14.15;69.41;100347.94;1087794;54;19939;-77
2022/05/10 04:09:05;;;;;;;;;;;;;;;14.14;69.83;100340.88;1087925;54;19943;-78
2022/05/10 04:10:13;;;;;;;;;;;;;;;14.10;70.00;100336.84;1088173;47;19939;-78
2022/05/10 04:11:14;;;;;;;;;;;;;;;14.11;69.71;100339.38;1090067;47;19994;-78
2022/05/10 04:12:18;;;;;;;;;;;;;;;14.09;69.92;100329.78;1090732;47;19946;-77
2022/05/10 04:13:20;;;;;;;;;;;;;;;14.11;69.80;100338.53;1088316;54;19930;-78
2022/05/10 04:14:23;;;;;;;;;;;;;;;14.10;69.59;100332.31;1089367;47;19933;-78
2022/05/10 04:15:28;;;;;;;;;;;;;;;14.12;69.71;100334.84;1088324;54;19946;-77
2022/05/10 04:16:29;;;;;;;;;;;;;;;14.12;69.79;100335.69;1089568;47;19927;-77
2022/05/10 04:17:33;;;;;;;;;;;;;;;14.13;69.75;100331.13;1088332;54;19942;-78
2022/05/10 04:18:34;;;;;;;;;;;;;;;14.13;69.90;100332.00;1088354;54;19943;-79
2022/05/10 04:19:41;;;;;;;;;;;;;;;14.17;69.57;100324.44;1089673;47;19975;-78
2022/05/10 04:20:43;;;;;;;;;;;;;;;14.19;69.30;100330.50;1088364;54;19946;-78
2022/05/10 04:21:48;;;;;;;;;;;;;;;14.22;69.45;100323.97;1088724;47;19958;-78
2022/05/10 04:22:53;;;;;;;;;;;;;;;14.25;69.11;100334.41;1090876;47;20035;-79
2022/05/10 04:23:55;;;;;;;;;;;;;;;14.28;69.09;100323.31;1090781;47;19950;-77
2022/05/10 04:24:58;;;;;;;;;;;;;;;14.29;69.08;100320.47;1088405;47;19930;-80
2022/05/10 04:26:03;;;;;;;;;;;;;;;14.31;68.97;100320.28;1088081;54;19942;-78
2022/05/10 04:27:07;;;;;;;;;;;;;;;14.30;69.21;100327.53;1088278;54;19990;-77
2022/05/10 04:28:08;;;;;;;;;;;;;;;14.27;69.27;100318.91;1091967;47;19939;-77
2022/05/10 04:29:13;;;;;;;;;;;;;;;14.19;69.84;100322.44;1089884;47;19926;-79
2022/05/10 04:30:17;;;;;;;;;;;;;;;14.17;69.68;100327.13;1093082;47;19954;-79
2022/05/10 04:31:18;;;;;;;;;;;;;;;14.19;69.58;100325.97;1088349;54;19923;-80
2022/05/10 04:32:25;;;;;;;;;;;;;;;14.20;69.38;100333.03;1090154;46;20017;-78
2022/05/10 04:33:26;;;;;;;;;;;;;;;14.23;69.22;100331.84;1089029;47;19950;-79
2022/05/10 04:34:30;;;;;;;;;;;;;;;14.17;69.66;100327.97;1090423;47;20007;-78
2022/05/10 04:35:34;;;;;;;;;;;;;;;14.20;69.56;100326.81;1090526;47;19966;-79
2022/05/10 04:36:44;;;;;;;;;;;;;;;14.21;69.34;100323.13;1092520;39;20493;-78
2022/05/10 04:37:46;;;;;;;;;;;;;;;14.24;69.51;100328.16;1088373;54;19991;-78
2022/05/10 04:38:50;;;;;;;;;;;;;;;14.25;69.12;100323.66;1090905;47;19950;-78
2022/05/10 04:41:24;;;;;;;;;;;;;;;14.29;69.24;100319.63;1088316;54;19926;-78
2022/05/10 04:42:28;;;;;;;;;;;;;;;14.29;69.10;100322.31;1088101;54;19943;-77
2022/05/10 04:43:29;;;;;;;;;;;;;;;14.22;69.63;100332.03;1088060;54;19943;-78
2022/05/10 04:44:33;;;;;;;;;;;;;;;14.27;69.17;100333.22;1088364;54;19927;-78
2022/05/10 04:45:34;;;;;;;;;;;;;;;14.26;69.56;100325.34;1089166;47;19939;-77
2022/05/10 04:46:40;;;;;;;;;;;;;;;14.31;69.12;100328.38;1089346;46;19943;-78
2022/05/10 04:47:44;;;;;;;;;;;;;;;14.35;68.75;100335.94;1088666;47;19962;-78
2022/05/10 04:48:45;;;;;;;;;;;;;;;14.38;68.71;100339.31;1088836;47;19945;-78
2022/05/10 04:49:49;;;;;;;;;;;;;;;14.42;68.72;100333.44;1088626;54;19934;-78
2022/05/10 04:50:53;;;;;;;;;;;;;;;14.45;68.48;100334.97;1091325;46;19938;-77
2022/05/10 04:51:57;;;;;;;;;;;;;;;14.48;68.60;100329.28;1089310;46;19934;-79
2022/05/10 04:53:00;;;;;;;;;;;;;;;14.47;68.67;100341.88;1088651;54;19951;-78
2022/05/10 05:09:45;;;;;;;;;;;;;;;14.58;68.30;100351.50;1088181;54;19962;-81
2022/05/10 05:10:46;;;;;;;;;;;;;;;14.58;68.32;100356.03;1088009;54;19942;-81
2022/05/10 05:11:50;;;;;;;;;;;;;;;14.57;67.94;100354.34;1088019;54;19934;-80
2022/05/10 05:12:51;;;;;;;;;;;;;;;14.49;68.81;100353.31;1088508;54;19950;-81
2022/05/10 05:13:57;;;;;;;;;;;;;;;14.52;68.40;100352.13;1088506;54;19954;-82
2022/05/10 05:14:58;;;;;;;;;;;;;;;14.58;68.40;100358.72;1088471;54;20031;-80
2022/05/10 05:16:02;;;;;;;;;;;;;;;14.62;68.15;100360.09;1088148;54;19942;-81
2022/05/10 05:17:04;;;;;;;;;;;;;;;14.66;68.10;100350.66;1088208;54;19949;-80
2022/05/10 05:18:09;;;;;;;;;;;;;;;14.68;67.72;100356.75;1088517;54;19942;-81
2022/05/10 05:19:13;;;;;;;;;;;;;;;14.65;67.76;100357.91;1088522;54;19923;-81
2022/05/10 05:20:14;;;;;;;;;;;;;;;14.65;67.89;100362.41;1089123;46;19923;-80
2022/05/10 05:21:18;;;;;;;;;;;;;;;14.66;67.94;100364.13;1088516;54;19942;-82
2022/05/10 05:22:19;;;;;;;;;;;;;;;14.67;67.83;100363.13;1088568;54;19942;-79
2022/05/10 05:23:24;;;;;;;;;;;;;;;14.57;68.07;100363.25;1090895;39;20535;-79
2022/05/10 05:24:25;;;;;;;;;;;;;;;14.56;68.50;100368.78;1088467;54;19942;-79
2022/05/10 05:25:32;;;;;;;;;;;;;;;14.61;68.11;100366.47;1088473;54;19949;-80
2022/05/10 05:26:36;;;;;;;;;;;;;;;14.65;67.86;100373.19;1088391;54;19943;-80
2022/05/10 05:27:37;;;;;;;;;;;;;;;14.66;67.93;100362.31;1088488;54;19978;-81
2022/05/10 05:28:41;;;;;;;;;;;;;;;14.72;67.74;100368.88;1088473;54;20031;-79
2022/05/10 05:29:42;;;;;;;;;;;;;;;14.69;67.56;100369.22;1088487;54;19927;-81
2022/05/10 05:30:46;;;;;;;;;;;;;;;14.75;67.77;100373.09;1088376;54;19947;-80
2022/05/10 05:31:48;;;;;;;;;;;;;;;14.81;67.53;100367.91;1088415;54;19943;-81
2022/05/10 05:32:52;;;;;;;;;;;;;;;14.84;67.15;100366.72;1088005;54;20594;-81
2022/05/10 05:33:56;;;;;;;;;;;;;;;14.87;67.34;100370.94;1094875;39;20764;-81
2022/05/10 05:34:58;;;;;;;;;;;;;;;14.89;67.43;100360.84;1088391;54;19942;-82
2022/05/10 05:36:01;;;;;;;;;;;;;;;14.91;67.23;100364.22;1088450;54;19942;-81
2022/05/10 05:38:24;;;;;;;;;;;;;;;14.92;67.27;100369.44;1088395;54;19950;-78
2022/05/10 05:39:25;;;;;;;;;;;;;;;14.95;67.07;100365.56;1088459;54;19943;-80
2022/05/10 05:40:29;;;;;;;;;;;;;;;14.89;67.37;100366.22;1088430;54;19943;-80
2022/05/10 05:41:32;;;;;;;;;;;;;;;14.90;67.34;100367.91;1088460;54;20547;-79
2022/05/10 05:42:36;;;;;;;;;;;;;;;14.93;67.13;100364.88;1088850;39;20463;-81
2022/05/10 05:43:40;;;;;;;;;;;;;;;14.96;67.00;100369.94;1088385;54;19943;-80
2022/05/10 05:44:41;;;;;;;;;;;;;;;14.97;67.15;100371.63;1091396;39;20628;-79
2022/05/10 05:45:45;;;;;;;;;;;;;;;15.01;66.99;100369.44;1088436;54;19927;-78
2022/05/10 05:46:47;;;;;;;;;;;;;;;15.03;67.11;100370.13;1088395;54;20014;-79
2022/05/10 05:47:51;;;;;;;;;;;;;;;15.07;66.94;100379.53;1088432;54;19951;-79
2022/05/10 05:48:58;;;;;;;;;;;;;;;15.08;66.49;100370.44;1088264;54;19973;-79
2022/05/10 05:49:59;;;;;;;;;;;;;;;15.10;66.67;100372.00;1088108;54;19994;-80
2022/05/10 05:51:03;;;;;;;;;;;;;;;15.09;66.75;100370.31;1089810;46;19939;-81
2022/05/10 05:52:04;;;;;;;;;;;;;;;15.12;66.49;100369.94;1092534;39;20588;-80
2022/05/10 05:53:08;;;;;;;;;;;;;;;14.96;67.04;100364.56;1088427;54;19941;-80
2022/05/10 05:54:10;;;;;;;;;;;;;;;14.80;67.68;100366.22;1088433;54;19942;-81
2022/05/10 05:55:14;;;;;;;;;;;;;;;14.76;67.83;100364.84;1089496;46;19962;-80
2022/05/10 05:56:18;;;;;;;;;;;;;;;14.60;68.44;100371.00;1088432;54;19942;-80